ΕΜΥ, Εθνική Μετεωρολογική Υπηρεσία - Δελτία Καιρού, Προγνώσεις

ΑΕΡΟΝΑΥΤΙΛΙΑ

GREEK AIRPORTS CODES

LGNX 211550Z 17006KT 9999 SCT040 21/16 Q1015 RMK SCT090 BKN180=

EUROPEAN AIRPORTS CODES

LFPO 212100Z 33006KT CAVOK 16/10 Q1019 NOSIG=